Time;durP1;ratioP1;P1;durP2;ratioP2;P2;SDS_P1;SDS_P2;PMS_P1;PMS_P2;Temp;Humidity;BMP_temperature;BMP_pressure;BME280_temperature;BME280_humidity;BME280_pressure;Samples;Min_cycle;Max_cycle;Signal;HPM_P1;HPM_P2
2023/03/21 00:00:34;;;;;;;24.98;19.60;;;13.00;92.90;;;;;;6211729;23;20320;-76
2023/03/21 00:03:00;;;;;;;22.80;17.77;;;13.00;92.90;;;;;;6212673;23;20001;-76
2023/03/21 00:05:25;;;;;;;23.75;19.27;;;13.00;92.90;;;;;;6185377;23;20079;-76
2023/03/21 00:07:51;;;;;;;23.73;19.23;;;12.90;92.90;;;;;;6210685;23;20402;-76
2023/03/21 00:10:17;;;;;;;22.42;19.70;;;12.90;93.00;;;;;;6212616;23;20011;-76
2023/03/21 00:12:42;;;;;;;25.85;20.38;;;12.90;93.00;;;;;;6212513;23;20011;-76
2023/03/21 00:15:11;;;;;;;21.75;18.65;;;12.90;93.00;;;;;;6213182;23;20005;-76
2023/03/21 00:17:38;;;;;;;23.27;19.67;;;12.90;93.00;;;;;;6188896;23;20004;-76
2023/03/21 00:20:07;;;;;;;23.83;20.38;;;12.80;93.00;;;;;;6214622;23;20024;-76
2023/03/21 00:22:37;;;;;;;23.73;19.73;;;12.80;93.10;;;;;;6215477;23;20321;-76
2023/03/21 00:25:03;;;;;;;25.23;20.88;;;12.90;93.10;;;;;;6215894;23;20327;-77
2023/03/21 00:27:28;;;;;;;24.60;19.75;;;12.90;93.10;;;;;;6189215;23;20000;-76
2023/03/21 00:29:54;;;;;;;25.48;20.63;;;12.90;93.00;;;;;;6215780;23;20005;-76
2023/03/21 00:32:21;;;;;;;25.52;21.48;;;12.90;92.90;;;;;;6215753;23;20005;-78
2023/03/21 00:34:47;;;;;;;28.02;22.00;;;12.90;92.90;;;;;;6215721;23;20007;-77
2023/03/21 00:37:15;;;;;;;26.63;21.25;;;12.90;92.90;;;;;;6215464;23;20331;-78
2023/03/21 00:39:43;;;;;;;26.70;21.73;;;12.90;92.90;;;;;;6215433;23;20011;-77
2023/03/21 00:42:09;;;;;;;28.95;22.55;;;12.80;93.00;;;;;;6215832;23;20020;-77
2023/03/21 00:44:35;;;;;;;26.70;21.52;;;12.80;93.00;;;;;;6215548;23;20000;-77
2023/03/21 00:47:02;;;;;;;27.85;22.00;;;12.80;93.00;;;;;;6215432;23;20350;-77
2023/03/21 00:49:32;;;;;;;28.15;23.83;;;12.70;93.00;;;;;;6215997;23;20076;-77
2023/03/21 00:51:59;;;;;;;28.90;22.67;;;12.70;93.10;;;;;;6211663;23;20450;-76
2023/03/21 00:54:25;;;;;;;33.08;24.33;;;12.70;93.20;;;;;;6211201;23;20457;-77
2023/03/21 00:56:51;;;;;;;26.75;23.45;;;12.60;93.20;;;;;;6186078;23;20019;-77
2023/03/21 00:59:17;;;;;;;28.05;23.10;;;12.70;93.20;;;;;;6211068;23;20079;-77
2023/03/21 01:01:45;;;;;;;33.00;24.52;;;12.60;93.20;;;;;;6211555;23;20059;-77
2023/03/21 01:04:13;;;;;;;27.23;22.85;;;12.60;93.20;;;;;;6211338;23;20007;-75
2023/03/21 01:06:41;;;;;;;35.13;25.85;;;12.60;93.20;;;;;;6211958;23;20446;-76
2023/03/21 01:09:21;;;;;;;27.40;22.70;;;12.60;93.20;;;;;;6211542;23;20005;-77
2023/03/21 01:11:48;;;;;;;31.77;24.08;;;12.60;93.20;;;;;;6185507;23;20005;-76
2023/03/21 01:14:15;;;;;;;30.83;25.60;;;12.60;93.20;;;;;;6211985;23;20004;-77
2023/03/21 01:16:42;;;;;;;30.45;23.55;;;12.60;93.20;;;;;;6215117;23;20005;-79
2023/03/21 01:19:10;;;;;;;33.22;25.15;;;12.60;93.20;;;;;;6214281;23;20426;-80
2023/03/21 01:21:36;;;;;;;29.45;24.05;;;12.50;93.20;;;;;;6214914;23;20374;-80
2023/03/21 01:24:02;;;;;;;27.67;23.00;;;12.60;93.20;;;;;;6214795;23;20000;-80
2023/03/21 01:26:28;;;;;;;29.70;23.90;;;12.50;93.20;;;;;;6214986;23;20054;-79
2023/03/21 01:28:54;;;;;;;27.67;23.63;;;12.50;93.20;;;;;;6215015;23;20004;-79
2023/03/21 01:31:20;;;;;;;30.17;24.30;;;12.50;93.20;;;;;;6214831;23;20123;-79
2023/03/21 01:33:45;;;;;;;30.27;23.75;;;12.60;93.20;;;;;;6214662;23;20505;-79
2023/03/21 01:36:24;;;;;;;29.02;23.90;;;12.60;93.20;;;;;;6214337;23;20084;-79
2023/03/21 01:38:50;;;;;;;29.55;23.70;;;12.60;93.10;;;;;;6211608;23;20023;-80
2023/03/21 01:41:35;;;;;;;29.48;23.90;;;12.60;93.10;;;;;;6213315;23;20009;-80
2023/03/21 01:44:01;;;;;;;27.30;22.83;;;12.60;93.10;;;;;;6215272;23;19996;-80
2023/03/21 01:46:39;;;;;;;32.70;26.48;;;12.60;93.10;;;;;;6214903;23;20047;-80
2023/03/21 01:49:13;;;;;;;28.42;24.23;;;12.50;93.10;;;;;;6213755;23;20025;-80
2023/03/21 01:51:44;;;;;;;29.77;25.50;;;12.50;93.10;;;;;;6213975;23;20000;-80
2023/03/21 01:54:16;;;;;;;27.92;22.48;;;12.50;93.20;;;;;;6215346;23;20015;-80
2023/03/21 01:56:45;;;;;;;29.48;23.58;;;12.50;93.20;;;;;;6214403;23;20335;-80
2023/03/21 01:59:20;;;;;;;27.33;23.17;;;12.50;93.20;;;;;;6214192;23;20327;-79
2023/03/21 02:01:47;;;;;;;29.85;23.60;;;12.50;93.20;;;;;;6187555;23;20090;-80
2023/03/21 02:04:13;;;;;;;31.58;25.63;;;12.50;93.20;;;;;;6214623;23;20032;-80
2023/03/21 02:06:56;;;;;;;29.98;24.05;;;12.50;93.20;;;;;;6214369;23;20001;-79
2023/03/21 02:09:25;;;;;;;30.70;23.33;;;12.50;93.20;;;;;;6214604;23;20414;-80
2023/03/21 02:11:53;;;;;;;31.05;24.85;;;12.50;93.20;;;;;;6214237;23;20005;-79
2023/03/21 02:14:19;;;;;;;37.63;26.92;;;12.50;93.20;;;;;;6214388;23;20004;-80
2023/03/21 02:16:51;;;;;;;29.05;23.73;;;12.50;93.00;;;;;;6214805;23;20037;-80
2023/03/21 02:19:22;;;;;;;28.98;23.27;;;12.40;93.00;;;;;;6214853;23;20058;-80
2023/03/21 02:21:51;;;;;;;27.25;22.65;;;12.40;93.00;;;;;;6215403;23;20054;-80
2023/03/21 02:24:42;;;;;;;34.60;24.42;;;12.40;93.00;;;;;;6215192;23;20000;-80
2023/03/21 02:27:22;;;;;;;27.73;23.13;;;12.40;93.00;;;;;;6214893;23;20462;-79
2023/03/21 02:29:54;;;;;;;30.80;24.05;;;12.40;93.00;;;;;;6188152;23;20011;-80
2023/03/21 02:32:32;;;;;;;30.65;23.83;;;12.30;93.10;;;;;;6214494;23;20001;-80
2023/03/21 02:35:23;;;;;;;30.95;24.17;;;12.40;93.00;;;;;;6214907;23;20423;-79
2023/03/21 02:37:55;;;;;;;29.13;23.05;;;12.30;93.00;;;;;;6214487;23;19996;-81
2023/03/21 02:40:45;;;;;;;29.75;24.13;;;12.30;93.00;;;;;;6214918;23;20007;-81
2023/03/21 02:43:30;;;;;;;29.60;23.92;;;12.20;93.00;;;;;;6188377;23;20013;-81
2023/03/21 02:46:04;;;;;;;28.52;23.55;;;12.30;93.00;;;;;;6213166;23;20067;-81
2023/03/21 02:48:45;;;;;;;29.70;24.25;;;12.30;93.10;;;;;;6214849;23;20004;-82
2023/03/21 02:51:15;;;;;;;34.08;25.95;;;12.20;93.10;;;;;;6214922;23;20008;-82
2023/03/21 02:53:44;;;;;;;30.05;22.77;;;12.20;93.10;;;;;;6188471;23;20431;-83
2023/03/21 02:56:11;;;;;;;28.60;23.58;;;12.20;93.00;;;;;;6214991;23;20007;-82
2023/03/21 02:58:38;;;;;;;27.70;23.73;;;12.10;93.10;;;;;;6214844;23;20008;-80
2023/03/21 03:01:05;;;;;;;30.20;24.80;;;12.10;93.10;;;;;;6214016;23;20012;-80
2023/03/21 03:03:31;;;;;;;29.48;23.95;;;12.10;93.20;;;;;;6214598;23;19997;-81
2023/03/21 03:06:00;;;;;;;30.80;24.63;;;12.10;93.10;;;;;;6214361;23;20003;-81
2023/03/21 03:08:47;;;;;;;27.60;22.45;;;12.10;93.10;;;;;;6214315;23;19997;-81
2023/03/21 03:11:28;;;;;;;28.35;23.23;;;12.20;93.10;;;;;;6214703;23;20005;-80
2023/03/21 03:14:28;;;;;;;27.45;23.35;;;12.20;93.00;;;;;;6214534;23;20001;-80
2023/03/21 03:17:49;;;;;;;31.30;23.33;;;12.20;93.00;;;;;;6157006;23;20016;-81
2023/03/21 03:20:21;;;;;;;28.08;22.98;;;12.20;92.90;;;;;;6188575;23;20005;-81
2023/03/21 03:22:53;;;;;;;29.35;23.00;;;12.20;92.90;;;;;;6215026;23;20071;-82
2023/03/21 03:25:25;;;;;;;28.50;23.50;;;12.20;92.60;;;;;;6214548;23;20024;-81
2023/03/21 03:27:54;;;;;;;28.08;23.88;;;12.20;92.80;;;;;;6214484;23;20001;-81
2023/03/21 03:30:23;;;;;;;27.00;22.88;;;12.20;92.70;;;;;;6188188;23;20019;-81
2023/03/21 03:32:54;;;;;;;28.13;22.20;;;12.20;92.70;;;;;;6216231;23;20005;-76
2023/03/21 03:35:21;;;;;;;29.17;23.83;;;12.20;92.70;;;;;;6215214;23;20001;-76
2023/03/21 03:37:52;;;;;;;29.35;22.95;;;12.20;92.70;;;;;;6186997;23;20062;-76
2023/03/21 03:40:24;;;;;;;29.55;23.83;;;12.10;92.70;;;;;;6215098;23;20007;-76
2023/03/21 03:43:00;;;;;;;27.48;22.58;;;12.10;92.70;;;;;;6214455;23;20016;-77
2023/03/21 03:45:42;;;;;;;30.40;24.13;;;12.10;92.70;;;;;;6215160;23;20007;-77
2023/03/21 03:48:21;;;;;;;28.98;23.80;;;12.10;92.70;;;;;;6215868;23;20020;-78
2023/03/21 03:50:49;;;;;;;27.00;21.90;;;12.00;92.70;;;;;;6215727;23;20008;-78
2023/03/21 03:53:27;;;;;;;25.73;21.25;;;12.00;92.80;;;;;;6216158;23;20001;-77
2023/03/21 03:55:55;;;;;;;29.25;22.65;;;11.90;92.80;;;;;;6215743;23;20001;-78
2023/03/21 03:58:22;;;;;;;28.88;22.60;;;11.90;92.90;;;;;;6215694;23;20360;-78
2023/03/21 04:00:50;;;;;;;29.42;22.92;;;11.90;92.80;;;;;;6215048;23;20024;-78
2023/03/21 04:03:15;;;;;;;27.60;22.63;;;11.90;92.90;;;;;;6216130;23;20462;-78
2023/03/21 04:05:45;;;;;;;27.35;22.35;;;11.90;92.90;;;;;;6189487;23;20007;-78
2023/03/21 04:08:14;;;;;;;28.17;21.53;;;12.00;92.80;;;;;;6188437;23;20004;-78
2023/03/21 04:10:41;;;;;;;26.15;21.67;;;11.90;92.70;;;;;;6215251;23;20001;-78
2023/03/21 04:13:08;;;;;;;26.27;21.38;;;12.00;92.40;;;;;;6215658;23;20001;-78
2023/03/21 04:15:34;;;;;;;25.20;20.67;;;12.00;92.60;;;;;;6215689;23;20067;-78
2023/03/21 04:18:00;;;;;;;23.45;20.38;;;12.00;92.50;;;;;;6215472;23;20000;-78
2023/03/21 04:20:26;;;;;;;27.77;22.17;;;12.00;92.40;;;;;;6216268;23;20058;-77
2023/03/21 04:22:53;;;;;;;29.30;21.65;;;12.00;92.40;;;;;;6216346;23;20079;-78
2023/03/21 04:25:19;;;;;;;27.23;20.98;;;12.00;92.50;;;;;;6215205;23;19996;-77
2023/03/21 04:27:47;;;;;;;24.95;20.85;;;12.00;92.40;;;;;;6216490;23;20000;-77
2023/03/21 04:30:14;;;;;;;26.88;22.20;;;11.90;92.40;;;;;;6216103;23;20009;-78
2023/03/21 04:32:39;;;;;;;24.70;21.02;;;11.90;92.30;;;;;;6215245;23;20330;-78
2023/03/21 04:35:07;;;;;;;24.38;21.48;;;11.90;92.30;;;;;;6215881;23;20028;-77
2023/03/21 04:37:33;;;;;;;26.13;21.67;;;11.80;92.40;;;;;;6215357;23;20032;-78
2023/03/21 04:40:06;;;;;;;26.50;21.98;;;11.80;92.40;;;;;;6214751;23;20009;-77
2023/03/21 04:42:33;;;;;;;24.00;19.25;;;11.80;92.50;;;;;;6214625;23;20510;-77
2023/03/21 04:44:59;;;;;;;25.05;20.75;;;11.80;92.60;;;;;;6216148;23;20007;-77
2023/03/21 04:47:25;;;;;;;25.77;20.50;;;11.80;92.60;;;;;;6213749;23;19996;-77
2023/03/21 04:49:52;;;;;;;24.35;20.17;;;11.70;92.70;;;;;;6211293;23;20001;-76
2023/03/21 04:52:18;;;;;;;27.13;22.05;;;11.70;92.70;;;;;;6211328;23;20114;-75
2023/03/21 04:54:44;;;;;;;24.55;19.75;;;11.70;92.70;;;;;;6211450;23;20012;-76
2023/03/21 04:57:10;;;;;;;23.17;18.85;;;11.70;92.70;;;;;;6212031;23;20072;-76
2023/03/21 04:59:36;;;;;;;21.77;18.33;;;11.60;92.50;;;;;;6211692;23;20031;-76
2023/03/21 05:02:02;;;;;;;21.00;17.70;;;11.60;92.70;;;;;;6211762;23;20024;-77
2023/03/21 05:04:28;;;;;;;20.10;17.48;;;11.50;92.70;;;;;;6212319;23;20629;-76
2023/03/21 05:06:54;;;;;;;24.75;19.63;;;11.50;92.70;;;;;;6213530;23;19996;-76
2023/03/21 05:09:21;;;;;;;24.42;18.63;;;11.40;92.70;;;;;;6214872;23;20027;-75
2023/03/21 05:11:47;;;;;;;25.98;20.13;;;11.40;92.80;;;;;;6213502;23;20015;-78
2023/03/21 05:14:16;;;;;;;22.73;18.48;;;11.30;92.80;;;;;;6211013;23;20008;-75
2023/03/21 05:16:47;;;;;;;23.38;19.45;;;11.20;93.00;;;;;;6214991;23;20913;-76
2023/03/21 05:19:14;;;;;;;20.95;17.25;;;11.20;93.00;;;;;;6214526;23;20008;-75
2023/03/21 05:21:40;;;;;;;20.52;17.35;;;11.20;93.00;;;;;;6187318;23;20355;-75
2023/03/21 05:24:13;;;;;;;24.08;19.02;;;11.10;93.00;;;;;;6214349;23;19997;-75
2023/03/21 05:26:39;;;;;;;24.20;19.50;;;11.10;93.00;;;;;;6215114;23;20023;-75
2023/03/21 05:29:06;;;;;;;24.50;19.15;;;11.10;93.00;;;;;;6214894;23;19997;-76
2023/03/21 05:31:31;;;;;;;24.45;19.15;;;11.10;93.00;;;;;;6215026;23;20015;-74
2023/03/21 05:33:57;;;;;;;21.33;17.55;;;11.10;93.00;;;;;;6214432;23;20001;-74
2023/03/21 05:36:23;;;;;;;23.90;18.13;;;11.10;93.00;;;;;;6212903;23;20012;-74
2023/03/21 05:38:49;;;;;;;24.75;19.15;;;11.10;92.90;;;;;;6212424;23;20009;-74
2023/03/21 05:41:16;;;;;;;19.38;17.00;;;11.20;92.90;;;;;;6213879;23;20427;-74
2023/03/21 05:43:42;;;;;;;22.70;18.23;;;11.10;92.80;;;;;;6214711;23;20000;-75
2023/03/21 05:46:08;;;;;;;18.23;16.33;;;11.10;92.90;;;;;;6212979;23;20007;-73
2023/03/21 05:48:34;;;;;;;22.27;18.35;;;11.10;92.90;;;;;;6215694;23;20023;-73
2023/03/21 05:51:01;;;;;;;21.00;18.02;;;11.10;92.90;;;;;;6214449;23;20008;-73
2023/03/21 05:53:26;;;;;;;22.10;18.60;;;11.10;92.90;;;;;;6213839;23;20420;-73
2023/03/21 05:55:52;;;;;;;22.77;19.05;;;11.20;92.90;;;;;;6215493;23;20004;-74
2023/03/21 05:58:18;;;;;;;22.40;19.10;;;11.20;92.90;;;;;;6215299;23;20028;-74
2023/03/21 06:00:44;;;;;;;24.95;19.73;;;11.30;92.80;;;;;;6214454;23;20005;-74
2023/03/21 06:03:09;;;;;;;22.85;19.58;;;11.30;92.70;;;;;;6215563;23;20001;-81
2023/03/21 06:05:35;;;;;;;24.55;19.70;;;11.30;92.80;;;;;;6214691;23;20007;-74
2023/03/21 06:08:01;;;;;;;26.77;21.13;;;11.40;92.80;;;;;;6213442;23;20354;-74
2023/03/21 06:10:27;;;;;;;29.73;23.67;;;11.50;92.60;;;;;;6188106;23;20043;-74
2023/03/21 06:12:53;;;;;;;30.67;23.10;;;11.40;92.90;;;;;;6214686;23;20001;-74
2023/03/21 06:15:19;;;;;;;28.20;22.65;;;11.40;92.80;;;;;;6212676;23;20004;-74
2023/03/21 06:17:44;;;;;;;32.17;24.73;;;11.50;92.80;;;;;;6213996;23;20007;-74
2023/03/21 06:20:11;;;;;;;29.60;24.30;;;11.50;92.60;;;;;;6182704;23;20063;-79
2023/03/21 06:22:37;;;;;;;42.70;29.85;;;11.50;92.90;;;;;;6184593;23;20008;-79
2023/03/21 06:25:04;;;;;;;33.70;26.67;;;11.40;93.30;;;;;;6183727;23;20087;-83
2023/03/21 06:27:30;;;;;;;34.03;25.40;;;11.40;93.20;;;;;;6184766;23;20008;-83
2023/03/21 06:29:58;;;;;;;35.65;28.70;;;11.40;93.20;;;;;;6184505;23;20076;-85
2023/03/21 06:32:25;;;;;;;32.83;26.20;;;11.40;93.50;;;;;;6157987;23;20335;-84
2023/03/21 06:34:51;;;;;;;31.38;24.38;;;11.40;93.10;;;;;;6184842;23;20028;-85
2023/03/21 06:37:19;;;;;;;30.73;23.52;;;11.40;93.30;;;;;;6185289;23;20103;-85
2023/03/21 06:39:45;;;;;;;34.20;27.55;;;11.40;93.20;;;;;;6185067;23;20008;-83
2023/03/21 06:42:12;;;;;;;34.58;24.77;;;11.40;93.20;;;;;;6185065;23;20438;-82
2023/03/21 06:44:38;;;;;;;33.40;25.23;;;11.40;93.10;;;;;;6185282;23;20035;-76
2023/03/21 06:47:04;;;;;;;31.98;24.40;;;11.40;93.20;;;;;;6159185;23;20005;-77
2023/03/21 06:49:30;;;;;;;36.88;26.50;;;11.50;93.00;;;;;;6185698;23;20423;-77
2023/03/21 06:51:56;;;;;;;32.38;25.05;;;11.60;92.90;;;;;;6159341;23;20001;-77
2023/03/21 06:54:21;;;;;;;32.55;25.13;;;11.70;92.70;;;;;;6185459;23;20485;-76
2023/03/21 06:56:47;;;;;;;31.23;26.10;;;11.80;92.80;;;;;;6184906;23;20357;-77
2023/03/21 06:59:13;;;;;;;37.28;27.65;;;11.90;92.70;;;;;;6184917;23;20005;-77
2023/03/21 07:01:39;;;;;;;32.92;26.02;;;11.90;92.70;;;;;;6183806;23;20001;-78
2023/03/21 07:04:05;;;;;;;35.40;27.45;;;12.00;92.50;;;;;;6184862;23;19997;-79
2023/03/21 07:06:31;;;;;;;33.20;26.80;;;12.10;92.70;;;;;;6186571;23;20001;-78
2023/03/21 07:08:57;;;;;;;34.58;26.38;;;12.30;92.50;;;;;;6185263;23;20268;-79
2023/03/21 07:11:24;;;;;;;34.42;26.90;;;12.30;92.30;;;;;;6185793;23;20432;-79
2023/03/21 07:13:50;;;;;;;37.10;29.50;;;12.30;92.40;;;;;;6186799;23;20001;-77
2023/03/21 07:16:17;;;;;;;33.70;26.27;;;12.40;92.40;;;;;;6186653;23;20008;-78
2023/03/21 07:18:43;;;;;;;34.30;26.80;;;12.50;92.30;;;;;;6187184;23;20017;-78
2023/03/21 07:21:09;;;;;;;34.97;27.42;;;12.60;92.30;;;;;;6186430;23;20083;-78
2023/03/21 07:23:37;;;;;;;33.40;26.27;;;12.70;92.30;;;;;;6154122;23;20569;-78
2023/03/21 07:26:03;;;;;;;35.65;27.13;;;12.80;92.20;;;;;;6185086;23;19997;-77
2023/03/21 07:28:32;;;;;;;31.85;26.80;;;12.90;92.10;;;;;;6185199;23;20001;-78
2023/03/21 07:31:06;;;;;;;36.05;27.83;;;13.00;92.00;;;;;;6159495;23;20443;-80
2023/03/21 07:33:32;;;;;;;32.35;25.67;;;13.10;91.90;;;;;;6155861;23;20013;-78
2023/03/21 07:35:59;;;;;;;34.90;26.98;;;13.20;91.80;;;;;;6187111;23;20005;-78
2023/03/21 07:38:26;;;;;;;33.95;26.48;;;13.20;91.80;;;;;;6187396;23;20001;-79
2023/03/21 07:40:51;;;;;;;31.67;25.10;;;13.30;91.80;;;;;;6186904;23;20015;-79
2023/03/21 07:43:18;;;;;;;31.27;24.50;;;13.40;91.70;;;;;;6186987;23;20021;-79
2023/03/21 07:45:44;;;;;;;33.17;27.00;;;13.50;91.70;;;;;;6186900;23;20036;-80
2023/03/21 07:48:13;;;;;;;38.53;28.08;;;13.70;91.70;;;;;;6186421;23;20028;-81
2023/03/21 07:50:39;;;;;;;28.95;22.58;;;13.70;91.40;;;;;;6159122;23;20015;-80
2023/03/21 07:53:06;;;;;;;28.52;22.52;;;13.80;91.60;;;;;;6184857;23;20004;-79
2023/03/21 07:55:33;;;;;;;30.67;23.33;;;14.00;91.80;;;;;;6185709;23;20012;-82
2023/03/21 07:58:01;;;;;;;26.85;21.25;;;14.10;91.70;;;;;;6185273;23;20016;-81
2023/03/21 08:00:27;;;;;;;26.25;22.45;;;14.20;91.20;;;;;;6184426;23;20084;-81
2023/03/21 08:02:55;;;;;;;30.45;23.67;;;14.30;90.60;;;;;;6185196;23;20028;-81
2023/03/21 08:05:22;;;;;;;27.65;20.17;;;14.40;90.40;;;;;;6185370;23;20001;-80
2023/03/21 08:07:49;;;;;;;23.05;19.55;;;14.40;90.20;;;;;;6185053;23;20007;-80
2023/03/21 08:10:16;;;;;;;24.17;19.63;;;14.40;90.00;;;;;;6185476;23;20546;-80
2023/03/21 08:12:42;;;;;;;22.77;20.08;;;14.40;88.00;;;;;;6184992;23;20055;-78
2023/03/21 08:15:08;;;;;;;24.48;20.35;;;14.40;87.80;;;;;;6185587;23;20001;-80
2023/03/21 08:17:36;;;;;;;25.17;21.63;;;14.50;87.70;;;;;;6184513;23;20016;-80
2023/03/21 08:20:08;;;;;;;27.33;21.27;;;14.60;87.70;;;;;;6185352;23;20071;-80
2023/03/21 08:22:35;;;;;;;22.88;18.45;;;14.60;88.00;;;;;;6159349;23;20067;-82
2023/03/21 08:25:06;;;;;;;22.45;16.85;;;14.70;88.50;;;;;;6158730;23;20367;-80
2023/03/21 08:27:33;;;;;;;25.85;20.35;;;14.70;89.10;;;;;;6186015;23;20048;-82
2023/03/21 08:30:00;;;;;;;22.88;18.55;;;14.90;89.10;;;;;;6184984;23;20056;-79
2023/03/21 08:32:30;;;;;;;22.80;18.80;;;15.10;89.50;;;;;;6158828;23;20124;-81
2023/03/21 08:35:00;;;;;;;30.00;25.13;;;15.10;88.40;;;;;;6158419;23;20005;-82
2023/03/21 08:37:28;;;;;;;37.80;28.05;;;15.00;87.70;;;;;;6159375;23;20009;-82
2023/03/21 08:39:54;;;;;;;37.08;28.13;;;14.90;88.40;;;;;;6185543;23;19997;-82
2023/03/21 08:42:20;;;;;;;33.72;27.00;;;14.90;88.80;;;;;;6184778;23;20021;-82
2023/03/21 08:44:46;;;;;;;29.65;23.15;;;14.90;89.20;;;;;;6184383;23;20051;-79
2023/03/21 08:47:12;;;;;;;24.85;20.75;;;14.90;89.30;;;;;;6184044;23;20005;-80
2023/03/21 08:49:38;;;;;;;28.38;22.70;;;15.10;89.60;;;;;;6185357;23;20052;-79
2023/03/21 08:52:05;;;;;;;26.70;22.48;;;15.30;89.90;;;;;;6185029;23;20001;-83
2023/03/21 08:54:31;;;;;;;27.30;22.33;;;15.50;89.60;;;;;;6158442;23;20008;-81
2023/03/21 08:56:57;;;;;;;30.95;23.45;;;15.70;89.50;;;;;;6185649;23;20128;-83
2023/03/21 08:59:23;;;;;;;26.52;22.10;;;15.90;89.20;;;;;;6186312;23;20044;-82
2023/03/21 09:01:48;;;;;;;30.23;24.58;;;16.00;88.50;;;;;;6185369;23;20435;-83
2023/03/21 09:04:17;;;;;;;34.75;27.25;;;16.20;88.60;;;;;;6185772;23;20333;-83
2023/03/21 09:06:47;;;;;;;34.17;26.20;;;16.40;87.10;;;;;;6185169;23;20408;-82
2023/03/21 09:09:14;;;;;;;32.50;24.02;;;16.40;86.90;;;;;;6156581;23;20081;-83
2023/03/21 09:11:40;;;;;;;26.85;22.42;;;16.50;87.20;;;;;;6158603;23;20013;-83
2023/03/21 09:14:06;;;;;;;27.65;22.70;;;16.70;87.50;;;;;;6184903;23;20104;-83
2023/03/21 09:16:32;;;;;;;31.70;24.10;;;16.90;87.50;;;;;;6185315;23;20493;-83
2023/03/21 09:18:58;;;;;;;26.70;22.30;;;17.10;87.30;;;;;;6184759;23;20415;-82
2023/03/21 09:21:26;;;;;;;35.55;26.45;;;17.40;86.90;;;;;;6185384;23;20013;-83
2023/03/21 09:23:54;;;;;;;35.85;27.23;;;17.50;84.10;;;;;;6185856;23;20012;-84
2023/03/21 09:26:22;;;;;;;27.85;22.42;;;17.50;83.30;;;;;;6185184;23;19997;-82
2023/03/21 09:28:48;;;;;;;24.92;20.95;;;17.60;84.00;;;;;;6185131;23;20010;-83
2023/03/21 09:31:20;;;;;;;27.30;19.10;;;17.70;84.30;;;;;;6181641;23;20308;-83
2023/03/21 09:33:46;;;;;;;27.58;20.15;;;17.90;84.40;;;;;;6185168;23;20005;-81
2023/03/21 09:36:15;;;;;;;23.35;17.90;;;18.10;84.30;;;;;;6182707;23;20005;-83
2023/03/21 09:38:44;;;;;;;21.45;18.13;;;18.30;83.10;;;;;;6183918;23;20420;-83
2023/03/21 09:41:31;;;;;;;20.58;17.92;;;18.40;82.00;;;;;;6183823;23;20045;-79
2023/03/21 09:44:28;;;;;;;21.42;16.65;;;18.60;81.60;;;;;;6183284;23;20513;-78
2023/03/21 09:47:12;;;;;;;22.55;16.98;;;19.10;80.00;;;;;;6156851;23;20001;-78
2023/03/21 09:49:48;;;;;;;27.17;22.50;;;19.00;79.80;;;;;;6184392;23;20078;-75
2023/03/21 09:52:53;;;;;;;20.33;17.13;;;19.10;74.90;;;;;;6185378;23;20001;-76
2023/03/21 09:55:29;;;;;;;154.38;122.35;;;19.30;77.80;;;;;;6183758;23;20459;-77
2023/03/21 09:58:19;;;;;;;320.42;270.27;;;19.40;77.70;;;;;;6183577;23;20451;-77
2023/03/21 10:00:49;;;;;;;83.55;70.72;;;19.70;77.30;;;;;;6184008;23;20052;-78
2023/03/21 10:03:25;;;;;;;32.42;27.33;;;19.80;76.40;;;;;;6184431;23;20001;-77
2023/03/21 10:05:57;;;;;;;25.95;16.70;;;19.90;75.10;;;;;;6181987;23;20001;-81
2023/03/21 10:08:31;;;;;;;17.80;14.40;;;20.00;74.90;;;;;;6151103;23;20374;-82
2023/03/21 10:11:10;;;;;;;13.82;12.05;;;20.20;74.70;;;;;;6183281;23;20008;-78
2023/03/21 10:13:42;;;;;;;15.82;12.18;;;20.30;72.80;;;;;;6155453;23;20013;-77
2023/03/21 10:16:22;;;;;;;13.68;11.00;;;20.50;73.30;;;;;;6184111;23;20028;-77
2023/03/21 10:18:48;;;;;;;18.02;14.45;;;20.70;72.40;;;;;;6183270;23;20351;-78
2023/03/21 10:21:23;;;;;;;17.17;13.30;;;20.80;71.70;;;;;;6183303;23;20012;-77
2023/03/21 10:23:52;;;;;;;13.35;11.55;;;21.00;71.80;;;;;;6183315;23;20001;-78
2023/03/21 10:26:20;;;;;;;15.18;11.10;;;21.20;71.80;;;;;;6183788;23;20481;-78
2023/03/21 10:28:47;;;;;;;13.38;11.68;;;21.30;71.90;;;;;;6184015;23;19997;-77
2023/03/21 10:31:20;;;;;;;15.18;13.35;;;21.50;70.70;;;;;;6184107;23;20009;-78
2023/03/21 10:33:49;;;;;;;18.73;14.38;;;21.70;70.40;;;;;;6184138;23;20028;-77
2023/03/21 10:36:24;;;;;;;18.48;15.38;;;21.90;70.10;;;;;;6184309;23;20304;-76
2023/03/21 10:38:55;;;;;;;17.67;14.23;;;22.00;69.60;;;;;;6183995;23;20027;-77
2023/03/21 10:41:21;;;;;;;16.63;13.10;;;22.20;69.30;;;;;;6157225;23;20083;-77
2023/03/21 10:44:16;;;;;;;15.60;12.18;;;22.30;68.60;;;;;;6183604;23;20439;-77
2023/03/21 10:46:56;;;;;;;16.90;12.38;;;22.40;68.20;;;;;;6184188;23;20008;-78
2023/03/21 10:49:24;;;;;;;13.77;12.27;;;22.60;68.10;;;;;;6184337;23;20316;-82
2023/03/21 10:51:55;;;;;;;21.60;17.05;;;22.70;67.90;;;;;;6184561;23;20001;-82
2023/03/21 10:54:27;;;;;;;20.90;17.00;;;22.80;67.60;;;;;;6185678;23;20008;-82
2023/03/21 10:57:08;;;;;;;22.65;17.95;;;22.90;67.60;;;;;;6184075;23;20509;-81
2023/03/21 10:59:56;;;;;;;21.40;17.60;;;23.00;67.60;;;;;;6157658;23;20016;-81
2023/03/21 11:02:29;;;;;;;26.85;20.63;;;23.20;67.90;;;;;;6184477;23;20009;-82
2023/03/21 11:04:55;;;;;;;22.67;19.15;;;23.30;67.00;;;;;;6185428;23;20482;-82
2023/03/21 11:07:24;;;;;;;25.52;19.90;;;23.30;66.80;;;;;;6158064;23;20083;-81
2023/03/21 11:09:56;;;;;;;23.65;18.60;;;23.40;66.70;;;;;;6185348;23;20439;-80
2023/03/21 11:12:29;;;;;;;31.42;23.25;;;23.50;66.50;;;;;;6184326;23;20032;-80
2023/03/21 11:14:56;;;;;;;29.23;20.42;;;23.60;65.70;;;;;;6185021;23;20067;-80
2023/03/21 11:17:30;;;;;;;28.70;23.10;;;23.60;65.60;;;;;;6185259;23;20001;-81
2023/03/21 11:20:09;;;;;;;27.05;20.70;;;23.60;65.20;;;;;;6185382;23;20009;-80
2023/03/21 11:22:42;;;;;;;22.63;19.77;;;23.70;65.40;;;;;;6158930;23;20072;-81
2023/03/21 11:25:22;;;;;;;23.58;19.48;;;23.80;64.50;;;;;;6185020;23;20131;-81
2023/03/21 11:27:50;;;;;;;38.23;20.00;;;23.90;64.60;;;;;;6185433;23;20143;-81
2023/03/21 11:30:26;;;;;;;26.52;22.92;;;24.00;64.80;;;;;;6185155;23;20080;-81
2023/03/21 11:33:00;;;;;;;28.08;21.60;;;24.20;64.30;;;;;;6184939;23;20015;-81
2023/03/21 11:35:38;;;;;;;24.58;19.73;;;24.30;63.90;;;;;;6185265;23;20080;-81
2023/03/21 11:38:06;;;;;;;27.73;22.02;;;24.40;63.90;;;;;;6157653;23;20012;-82
2023/03/21 11:40:38;;;;;;;27.33;19.90;;;24.70;63.80;;;;;;6185006;23;20076;-81
2023/03/21 11:43:25;;;;;;;30.60;21.48;;;25.10;64.10;;;;;;6183262;23;20304;-82
2023/03/21 11:46:03;;;;;;;25.85;19.58;;;26.10;62.30;;;;;;6184888;23;20373;-83
2023/03/21 11:48:29;;;;;;;23.77;20.40;;;27.20;60.00;;;;;;6185778;23;20423;-82
2023/03/21 11:51:03;;;;;;;26.27;20.17;;;28.30;58.10;;;;;;6185061;23;20001;-82
2023/03/21 11:53:43;;;;;;;23.55;19.90;;;29.30;55.60;;;;;;6186627;23;20005;-83
2023/03/21 11:56:33;;;;;;;25.92;19.88;;;30.20;53.50;;;;;;6185270;23;20045;-84
2023/03/21 11:59:31;;;;;;;26.40;20.27;;;30.90;51.40;;;;;;6186509;23;20012;-84
2023/03/21 12:02:21;;;;;;;27.55;20.52;;;31.40;49.40;;;;;;6159050;23;20368;-82
2023/03/21 12:04:58;;;;;;;24.77;19.60;;;31.70;47.60;;;;;;6181715;23;20016;-80
2023/03/21 12:07:40;;;;;;;26.92;20.70;;;32.10;47.70;;;;;;6180856;23;20424;-82
2023/03/21 12:10:43;;;;;;;23.95;19.90;;;32.40;46.30;;;;;;6184022;23;20028;-81
2023/03/21 12:13:37;;;;;;;26.02;19.77;;;32.50;46.60;;;;;;6185237;23;20496;-81
2023/03/21 12:16:05;;;;;;;23.27;19.55;;;32.70;46.20;;;;;;6186323;23;20059;-81
2023/03/21 12:19:07;;;;;;;21.30;19.00;;;32.80;45.20;;;;;;6158990;23;20339;-81
2023/03/21 12:21:55;;;;;;;23.80;18.95;;;32.80;44.80;;;;;;6216448;23;20016;-81
2023/03/21 12:24:30;;;;;;;20.23;17.40;;;32.70;45.10;;;;;;6190298;23;20004;-80
2023/03/21 12:27:18;;;;;;;24.45;19.80;;;32.50;44.60;;;;;;6217106;23;19996;-78
2023/03/21 12:29:56;;;;;;;20.40;17.52;;;32.20;44.80;;;;;;6216003;23;20008;-78
2023/03/21 12:32:48;;;;;;;22.52;18.10;;;31.80;45.10;;;;;;6216168;23;20339;-79
2023/03/21 12:35:44;;;;;;;23.88;18.83;;;31.70;44.90;;;;;;6216263;23;20004;-79
2023/03/21 12:38:34;;;;;;;26.23;20.38;;;31.60;45.30;;;;;;6215867;23;20026;-78
2023/03/21 12:41:14;;;;;;;23.90;20.17;;;31.70;44.50;;;;;;6215938;23;20386;-79
2023/03/21 12:43:45;;;;;;;25.85;19.35;;;31.70;44.60;;;;;;6216233;23;20377;-78